sensor_id;sensor_type;location;lat;lon;timestamp;pressure;altitude;pressure_sealevel;temperature
41593;BMP180;28026;48.562;14.440;2022-09-09T00:02:23;93682.00;;;20.20
41593;BMP180;28026;48.562;14.440;2022-09-09T00:09:18;93669.00;;;20.10
41593;BMP180;28026;48.562;14.440;2022-09-09T00:11:34;93659.00;;;20.10
41593;BMP180;28026;48.562;14.440;2022-09-09T00:20:32;93656.00;;;20.00
41593;BMP180;28026;48.562;14.440;2022-09-09T00:23:15;93638.00;;;20.00
41593;BMP180;28026;48.562;14.440;2022-09-09T00:26:17;93649.00;;;20.00
41593;BMP180;28026;48.562;14.440;2022-09-09T00:31:50;93652.00;;;20.00
41593;BMP180;28026;48.562;14.440;2022-09-09T00:34:28;93653.00;;;20.00
41593;BMP180;28026;48.562;14.440;2022-09-09T00:36:59;93645.00;;;19.90
41593;BMP180;28026;48.562;14.440;2022-09-09T00:39:38;93643.00;;;19.90
41593;BMP180;28026;48.562;14.440;2022-09-09T00:44:59;93646.00;;;19.90
41593;BMP180;28026;48.562;14.440;2022-09-09T00:47:52;93644.00;;;19.60
41593;BMP180;28026;48.562;14.440;2022-09-09T00:51:01;93649.00;;;19.50
41593;BMP180;28026;48.562;14.440;2022-09-09T01:03:21;93651.00;;;19.50
41593;BMP180;28026;48.562;14.440;2022-09-09T01:06:34;93647.00;;;19.60
41593;BMP180;28026;48.562;14.440;2022-09-09T01:09:33;93645.00;;;19.60
41593;BMP180;28026;48.562;14.440;2022-09-09T01:12:16;93653.00;;;19.60
41593;BMP180;28026;48.562;14.440;2022-09-09T01:15:03;93655.00;;;19.60
41593;BMP180;28026;48.562;14.440;2022-09-09T01:18:26;93659.00;;;19.70
41593;BMP180;28026;48.562;14.440;2022-09-09T01:26:35;93663.00;;;19.50
41593;BMP180;28026;48.562;14.440;2022-09-09T01:29:12;93653.00;;;19.40
41593;BMP180;28026;48.562;14.440;2022-09-09T01:31:59;93656.00;;;19.40
41593;BMP180;28026;48.562;14.440;2022-09-09T01:34:36;93664.00;;;19.40
41593;BMP180;28026;48.562;14.440;2022-09-09T01:37:12;93658.00;;;19.50
41593;BMP180;28026;48.562;14.440;2022-09-09T01:39:44;93646.00;;;19.50
41593;BMP180;28026;48.562;14.440;2022-09-09T01:42:16;93656.00;;;19.50
41593;BMP180;28026;48.562;14.440;2022-09-09T01:44:46;93651.00;;;19.50
41593;BMP180;28026;48.562;14.440;2022-09-09T01:47:17;93664.00;;;19.50
41593;BMP180;28026;48.562;14.440;2022-09-09T01:49:48;93663.00;;;19.50
41593;BMP180;28026;48.562;14.440;2022-09-09T01:52:19;93651.00;;;19.50
41593;BMP180;28026;48.562;14.440;2022-09-09T01:54:50;93650.00;;;19.50
41593;BMP180;28026;48.562;14.440;2022-09-09T02:00:13;93660.00;;;19.60
41593;BMP180;28026;48.562;14.440;2022-09-09T02:08:54;93652.00;;;19.60
41593;BMP180;28026;48.562;14.440;2022-09-09T02:11:28;93653.00;;;19.60
41593;BMP180;28026;48.562;14.440;2022-09-09T02:14:12;93646.00;;;19.60
41593;BMP180;28026;48.562;14.440;2022-09-09T02:16:52;93646.00;;;19.50
41593;BMP180;28026;48.562;14.440;2022-09-09T02:19:35;93657.00;;;19.50
41593;BMP180;28026;48.562;14.440;2022-09-09T02:22:09;93658.00;;;19.50
41593;BMP180;28026;48.562;14.440;2022-09-09T02:24:40;93655.00;;;19.50
41593;BMP180;28026;48.562;14.440;2022-09-09T02:27:13;93664.00;;;19.50
41593;BMP180;28026;48.562;14.440;2022-09-09T02:29:47;93663.00;;;19.60
41593;BMP180;28026;48.562;14.440;2022-09-09T02:32:23;93659.00;;;19.60
41593;BMP180;28026;48.562;14.440;2022-09-09T02:34:59;93650.00;;;19.60
41593;BMP180;28026;48.562;14.440;2022-09-09T02:37:38;93653.00;;;19.70
41593;BMP180;28026;48.562;14.440;2022-09-09T02:40:12;93647.00;;;19.70
41593;BMP180;28026;48.562;14.440;2022-09-09T02:42:47;93642.00;;;19.70
41593;BMP180;28026;48.562;14.440;2022-09-09T02:45:27;93645.00;;;19.70
41593;BMP180;28026;48.562;14.440;2022-09-09T02:48:14;93649.00;;;19.70
41593;BMP180;28026;48.562;14.440;2022-09-09T02:51:13;93644.00;;;19.70
41593;BMP180;28026;48.562;14.440;2022-09-09T02:54:08;93638.00;;;19.70
41593;BMP180;28026;48.562;14.440;2022-09-09T02:56:52;93642.00;;;19.70
41593;BMP180;28026;48.562;14.440;2022-09-09T02:59:27;93644.00;;;19.70
41593;BMP180;28026;48.562;14.440;2022-09-09T03:01:58;93634.00;;;19.80
41593;BMP180;28026;48.562;14.440;2022-09-09T03:04:29;93643.00;;;19.80
41593;BMP180;28026;48.562;14.440;2022-09-09T03:07:01;93642.00;;;19.80
41593;BMP180;28026;48.562;14.440;2022-09-09T03:09:34;93637.00;;;19.80
41593;BMP180;28026;48.562;14.440;2022-09-09T03:12:05;93643.00;;;19.80
41593;BMP180;28026;48.562;14.440;2022-09-09T03:14:37;93649.00;;;19.80
41593;BMP180;28026;48.562;14.440;2022-09-09T03:17:08;93640.00;;;19.80
41593;BMP180;28026;48.562;14.440;2022-09-09T03:19:39;93647.00;;;19.80
41593;BMP180;28026;48.562;14.440;2022-09-09T03:22:10;93648.00;;;19.80
41593;BMP180;28026;48.562;14.440;2022-09-09T03:24:41;93652.00;;;19.80
41593;BMP180;28026;48.562;14.440;2022-09-09T03:27:12;93646.00;;;19.80
41593;BMP180;28026;48.562;14.440;2022-09-09T03:29:45;93655.00;;;19.80
41593;BMP180;28026;48.562;14.440;2022-09-09T03:32:18;93655.00;;;19.80
41593;BMP180;28026;48.562;14.440;2022-09-09T03:34:52;93658.00;;;19.80
41593;BMP180;28026;48.562;14.440;2022-09-09T03:37:23;93656.00;;;19.80
41593;BMP180;28026;48.562;14.440;2022-09-09T03:39:54;93650.00;;;19.80
41593;BMP180;28026;48.562;14.440;2022-09-09T03:42:25;93651.00;;;19.80
41593;BMP180;28026;48.562;14.440;2022-09-09T03:44:56;93643.00;;;19.80
41593;BMP180;28026;48.562;14.440;2022-09-09T03:47:28;93649.00;;;19.70
41593;BMP180;28026;48.562;14.440;2022-09-09T03:49:59;93649.00;;;19.70
41593;BMP180;28026;48.562;14.440;2022-09-09T03:52:30;93634.00;;;19.70
41593;BMP180;28026;48.562;14.440;2022-09-09T03:55:01;93638.00;;;19.70
41593;BMP180;28026;48.562;14.440;2022-09-09T03:57:32;93642.00;;;19.70
41593;BMP180;28026;48.562;14.440;2022-09-09T04:00:06;93634.00;;;19.70
41593;BMP180;28026;48.562;14.440;2022-09-09T04:02:38;93630.00;;;19.70
41593;BMP180;28026;48.562;14.440;2022-09-09T04:05:09;93628.00;;;19.80
41593;BMP180;28026;48.562;14.440;2022-09-09T04:07:40;93635.00;;;19.80
41593;BMP180;28026;48.562;14.440;2022-09-09T04:10:11;93633.00;;;19.80
41593;BMP180;28026;48.562;14.440;2022-09-09T04:12:41;93631.00;;;19.80
41593;BMP180;28026;48.562;14.440;2022-09-09T04:15:12;93637.00;;;19.90
41593;BMP180;28026;48.562;14.440;2022-09-09T04:17:43;93645.00;;;19.80
41593;BMP180;28026;48.562;14.440;2022-09-09T04:20:14;93638.00;;;19.60
41593;BMP180;28026;48.562;14.440;2022-09-09T04:22:45;93641.00;;;19.50
41593;BMP180;28026;48.562;14.440;2022-09-09T04:25:15;93641.00;;;19.40
41593;BMP180;28026;48.562;14.440;2022-09-09T04:27:46;93645.00;;;19.30
41593;BMP180;28026;48.562;14.440;2022-09-09T04:30:17;93642.00;;;19.30
41593;BMP180;28026;48.562;14.440;2022-09-09T04:32:48;93648.00;;;19.30
41593;BMP180;28026;48.562;14.440;2022-09-09T04:35:19;93653.00;;;19.40
41593;BMP180;28026;48.562;14.440;2022-09-09T04:37:50;93644.00;;;19.40
41593;BMP180;28026;48.562;14.440;2022-09-09T04:40:21;93651.00;;;19.50
41593;BMP180;28026;48.562;14.440;2022-09-09T04:42:52;93655.00;;;19.50
41593;BMP180;28026;48.562;14.440;2022-09-09T04:45:23;93641.00;;;19.60
41593;BMP180;28026;48.562;14.440;2022-09-09T04:47:54;93641.00;;;19.70
41593;BMP180;28026;48.562;14.440;2022-09-09T04:50:25;93640.00;;;19.70
41593;BMP180;28026;48.562;14.440;2022-09-09T04:52:56;93644.00;;;19.70
41593;BMP180;28026;48.562;14.440;2022-09-09T04:55:29;93636.00;;;19.80
41593;BMP180;28026;48.562;14.440;2022-09-09T04:58:06;93629.00;;;19.90
41593;BMP180;28026;48.562;14.440;2022-09-09T05:00:38;93640.00;;;19.90
41593;BMP180;28026;48.562;14.440;2022-09-09T05:03:08;93634.00;;;19.90
41593;BMP180;28026;48.562;14.440;2022-09-09T05:05:39;93635.00;;;19.80
41593;BMP180;28026;48.562;14.440;2022-09-09T05:08:10;93640.00;;;19.80
41593;BMP180;28026;48.562;14.440;2022-09-09T05:10:41;93641.00;;;19.90
41593;BMP180;28026;48.562;14.440;2022-09-09T05:13:12;93638.00;;;19.90
41593;BMP180;28026;48.562;14.440;2022-09-09T05:15:51;93652.00;;;20.10
41593;BMP180;28026;48.562;14.440;2022-09-09T05:18:23;93647.00;;;20.20
41593;BMP180;28026;48.562;14.440;2022-09-09T05:20:58;93645.00;;;20.30
41593;BMP180;28026;48.562;14.440;2022-09-09T05:23:30;93644.00;;;20.30
41593;BMP180;28026;48.562;14.440;2022-09-09T05:26:02;93641.00;;;20.40
41593;BMP180;28026;48.562;14.440;2022-09-09T05:28:35;93635.00;;;20.50
41593;BMP180;28026;48.562;14.440;2022-09-09T05:31:07;93640.00;;;20.50
41593;BMP180;28026;48.562;14.440;2022-09-09T05:33:43;93647.00;;;20.50
41593;BMP180;28026;48.562;14.440;2022-09-09T05:36:21;93657.00;;;20.60
41593;BMP180;28026;48.562;14.440;2022-09-09T05:38:53;93655.00;;;20.60
41593;BMP180;28026;48.562;14.440;2022-09-09T05:41:24;93666.00;;;20.70
41593;BMP180;28026;48.562;14.440;2022-09-09T05:43:55;93665.00;;;20.70
41593;BMP180;28026;48.562;14.440;2022-09-09T05:46:26;93668.00;;;20.60
41593;BMP180;28026;48.562;14.440;2022-09-09T05:48:57;93660.00;;;20.70
41593;BMP180;28026;48.562;14.440;2022-09-09T05:51:29;93664.00;;;20.80
41593;BMP180;28026;48.562;14.440;2022-09-09T05:54:03;93654.00;;;20.80
41593;BMP180;28026;48.562;14.440;2022-09-09T05:56:34;93657.00;;;20.90
41593;BMP180;28026;48.562;14.440;2022-09-09T05:59:04;93658.00;;;21.00
41593;BMP180;28026;48.562;14.440;2022-09-09T06:01:37;93648.00;;;21.00
41593;BMP180;28026;48.562;14.440;2022-09-09T06:04:10;93650.00;;;21.10
41593;BMP180;28026;48.562;14.440;2022-09-09T06:06:42;93658.00;;;21.10
41593;BMP180;28026;48.562;14.440;2022-09-09T06:09:13;93654.00;;;21.20
41593;BMP180;28026;48.562;14.440;2022-09-09T06:11:45;93659.00;;;21.30
41593;BMP180;28026;48.562;14.440;2022-09-09T06:14:16;93655.00;;;21.40
41593;BMP180;28026;48.562;14.440;2022-09-09T06:16:48;93635.00;;;21.60
41593;BMP180;28026;48.562;14.440;2022-09-09T06:19:19;93637.00;;;21.80
41593;BMP180;28026;48.562;14.440;2022-09-09T06:21:50;93631.00;;;21.90
41593;BMP180;28026;48.562;14.440;2022-09-09T06:24:21;93631.00;;;22.10
41593;BMP180;28026;48.562;14.440;2022-09-09T06:26:52;93638.00;;;22.30
41593;BMP180;28026;48.562;14.440;2022-09-09T06:29:24;93651.00;;;22.50
41593;BMP180;28026;48.562;14.440;2022-09-09T06:31:55;93647.00;;;22.60
41593;BMP180;28026;48.562;14.440;2022-09-09T06:34:26;93641.00;;;22.70
41593;BMP180;28026;48.562;14.440;2022-09-09T06:36:57;93647.00;;;22.90
41593;BMP180;28026;48.562;14.440;2022-09-09T06:39:28;93634.00;;;22.90
41593;BMP180;28026;48.562;14.440;2022-09-09T06:41:59;93647.00;;;22.80
41593;BMP180;28026;48.562;14.440;2022-09-09T06:44:30;93649.00;;;22.80
41593;BMP180;28026;48.562;14.440;2022-09-09T06:47:02;93663.00;;;22.80
41593;BMP180;28026;48.562;14.440;2022-09-09T06:49:33;93643.00;;;22.80
41593;BMP180;28026;48.562;14.440;2022-09-09T06:52:05;93648.00;;;22.80
41593;BMP180;28026;48.562;14.440;2022-09-09T06:54:36;93656.00;;;22.80
41593;BMP180;28026;48.562;14.440;2022-09-09T06:57:07;93658.00;;;22.80
41593;BMP180;28026;48.562;14.440;2022-09-09T06:59:38;93659.00;;;22.80
41593;BMP180;28026;48.562;14.440;2022-09-09T07:02:09;93657.00;;;22.80
41593;BMP180;28026;48.562;14.440;2022-09-09T07:04:40;93659.00;;;22.90
41593;BMP180;28026;48.562;14.440;2022-09-09T07:07:10;93657.00;;;22.90
41593;BMP180;28026;48.562;14.440;2022-09-09T07:09:44;93666.00;;;22.80
41593;BMP180;28026;48.562;14.440;2022-09-09T07:12:15;93666.00;;;22.80
41593;BMP180;28026;48.562;14.440;2022-09-09T07:14:46;93649.00;;;22.80
41593;BMP180;28026;48.562;14.440;2022-09-09T07:17:17;93647.00;;;22.90
41593;BMP180;28026;48.562;14.440;2022-09-09T07:19:48;93643.00;;;23.00
41593;BMP180;28026;48.562;14.440;2022-09-09T07:22:19;93650.00;;;23.00
41593;BMP180;28026;48.562;14.440;2022-09-09T07:24:50;93649.00;;;23.00
41593;BMP180;28026;48.562;14.440;2022-09-09T07:27:21;93658.00;;;23.00
41593;BMP180;28026;48.562;14.440;2022-09-09T07:29:52;93659.00;;;23.00
41593;BMP180;28026;48.562;14.440;2022-09-09T07:32:24;93654.00;;;23.00
41593;BMP180;28026;48.562;14.440;2022-09-09T07:34:56;93649.00;;;22.90
41593;BMP180;28026;48.562;14.440;2022-09-09T07:37:28;93649.00;;;22.90
41593;BMP180;28026;48.562;14.440;2022-09-09T07:39:59;93647.00;;;23.00
41593;BMP180;28026;48.562;14.440;2022-09-09T07:42:30;93652.00;;;23.00
41593;BMP180;28026;48.562;14.440;2022-09-09T07:45:01;93667.00;;;23.10
41593;BMP180;28026;48.562;14.440;2022-09-09T07:47:31;93670.00;;;23.10
41593;BMP180;28026;48.562;14.440;2022-09-09T07:50:02;93669.00;;;23.20
41593;BMP180;28026;48.562;14.440;2022-09-09T07:52:33;93672.00;;;23.20
41593;BMP180;28026;48.562;14.440;2022-09-09T07:55:05;93667.00;;;23.20
41593;BMP180;28026;48.562;14.440;2022-09-09T07:57:36;93677.00;;;23.20
41593;BMP180;28026;48.562;14.440;2022-09-09T08:00:07;93686.00;;;23.20
41593;BMP180;28026;48.562;14.440;2022-09-09T08:02:40;93682.00;;;23.30
41593;BMP180;28026;48.562;14.440;2022-09-09T08:05:12;93681.00;;;23.30
41593;BMP180;28026;48.562;14.440;2022-09-09T08:07:43;93685.00;;;23.30
41593;BMP180;28026;48.562;14.440;2022-09-09T08:10:14;93692.00;;;23.30
41593;BMP180;28026;48.562;14.440;2022-09-09T08:12:46;93689.00;;;23.20
41593;BMP180;28026;48.562;14.440;2022-09-09T08:15:17;93707.00;;;23.10
41593;BMP180;28026;48.562;14.440;2022-09-09T08:17:48;93710.00;;;23.00
41593;BMP180;28026;48.562;14.440;2022-09-09T08:20:19;93715.00;;;23.00
41593;BMP180;28026;48.562;14.440;2022-09-09T08:22:50;93701.00;;;23.00
41593;BMP180;28026;48.562;14.440;2022-09-09T08:25:21;93715.00;;;23.10
41593;BMP180;28026;48.562;14.440;2022-09-09T08:27:53;93705.00;;;23.10
41593;BMP180;28026;48.562;14.440;2022-09-09T08:30:24;93717.00;;;23.20
41593;BMP180;28026;48.562;14.440;2022-09-09T08:32:54;93707.00;;;23.30
41593;BMP180;28026;48.562;14.440;2022-09-09T08:35:25;93702.00;;;23.40
41593;BMP180;28026;48.562;14.440;2022-09-09T08:37:56;93714.00;;;23.40
41593;BMP180;28026;48.562;14.440;2022-09-09T08:40:33;93717.00;;;23.50
41593;BMP180;28026;48.562;14.440;2022-09-09T08:43:10;93713.00;;;23.50
41593;BMP180;28026;48.562;14.440;2022-09-09T08:45:56;93714.00;;;23.60
41593;BMP180;28026;48.562;14.440;2022-09-09T08:48:49;93708.00;;;23.60
41593;BMP180;28026;48.562;14.440;2022-09-09T08:51:50;93717.00;;;23.70
41593;BMP180;28026;48.562;14.440;2022-09-09T08:54:30;93700.00;;;23.70
41593;BMP180;28026;48.562;14.440;2022-09-09T08:57:11;93713.00;;;23.80
41593;BMP180;28026;48.562;14.440;2022-09-09T08:59:49;93713.00;;;23.80
41593;BMP180;28026;48.562;14.440;2022-09-09T09:02:48;93720.00;;;23.80
41593;BMP180;28026;48.562;14.440;2022-09-09T09:11:38;93707.00;;;24.00
41593;BMP180;28026;48.562;14.440;2022-09-09T09:14:34;93706.00;;;24.10
41593;BMP180;28026;48.562;14.440;2022-09-09T09:17:12;93696.00;;;24.10
41593;BMP180;28026;48.562;14.440;2022-09-09T09:19:48;93709.00;;;24.00
41593;BMP180;28026;48.562;14.440;2022-09-09T09:22:41;93711.00;;;24.10
41593;BMP180;28026;48.562;14.440;2022-09-09T09:25:21;93719.00;;;24.20
41593;BMP180;28026;48.562;14.440;2022-09-09T09:31:09;93713.00;;;24.00
41593;BMP180;28026;48.562;14.440;2022-09-09T09:36:24;93711.00;;;24.00
41593;BMP180;28026;48.562;14.440;2022-09-09T09:39:04;93710.00;;;24.00
41593;BMP180;28026;48.562;14.440;2022-09-09T09:41:40;93708.00;;;24.00
41593;BMP180;28026;48.562;14.440;2022-09-09T09:44:24;93717.00;;;24.00
41593;BMP180;28026;48.562;14.440;2022-09-09T09:47:14;93714.00;;;24.00
41593;BMP180;28026;48.562;14.440;2022-09-09T09:49:59;93715.00;;;23.90
41593;BMP180;28026;48.562;14.440;2022-09-09T09:52:31;93714.00;;;23.80
41593;BMP180;28026;48.562;14.440;2022-09-09T09:55:12;93714.00;;;23.80
41593;BMP180;28026;48.562;14.440;2022-09-09T09:57:44;93719.00;;;23.80
41593;BMP180;28026;48.562;14.440;2022-09-09T10:00:18;93725.00;;;23.90
41593;BMP180;28026;48.562;14.440;2022-09-09T10:02:51;93723.00;;;23.90
41593;BMP180;28026;48.562;14.440;2022-09-09T10:05:25;93733.00;;;23.80
41593;BMP180;28026;48.562;14.440;2022-09-09T10:10:51;93742.00;;;23.70
41593;BMP180;28026;48.562;14.440;2022-09-09T10:16:50;93738.00;;;23.40
41593;BMP180;28026;48.562;14.440;2022-09-09T10:23:13;93748.00;;;23.30
41593;BMP180;28026;48.562;14.440;2022-09-09T10:28:52;93748.00;;;23.00
41593;BMP180;28026;48.562;14.440;2022-09-09T10:32:02;93748.00;;;22.80
41593;BMP180;28026;48.562;14.440;2022-09-09T10:35:01;93747.00;;;22.70
41593;BMP180;28026;48.562;14.440;2022-09-09T10:46:53;93733.00;;;22.80
41593;BMP180;28026;48.562;14.440;2022-09-09T10:57:50;93742.00;;;23.00
41593;BMP180;28026;48.562;14.440;2022-09-09T11:00:31;93744.00;;;23.00
41593;BMP180;28026;48.562;14.440;2022-09-09T11:03:21;93740.00;;;23.00
41593;BMP180;28026;48.562;14.440;2022-09-09T11:05:59;93739.00;;;23.00
41593;BMP180;28026;48.562;14.440;2022-09-09T11:08:38;93742.00;;;23.00
41593;BMP180;28026;48.562;14.440;2022-09-09T11:11:25;93727.00;;;23.10
41593;BMP180;28026;48.562;14.440;2022-09-09T11:14:18;93722.00;;;23.30
41593;BMP180;28026;48.562;14.440;2022-09-09T11:16:56;93728.00;;;23.40
41593;BMP180;28026;48.562;14.440;2022-09-09T11:22:33;93721.00;;;23.40
41593;BMP180;28026;48.562;14.440;2022-09-09T11:25:25;93715.00;;;23.50
41593;BMP180;28026;48.562;14.440;2022-09-09T11:28:28;93711.00;;;23.60
41593;BMP180;28026;48.562;14.440;2022-09-09T11:37:38;93697.00;;;23.70
41593;BMP180;28026;48.562;14.440;2022-09-09T11:40:32;93698.00;;;23.70
41593;BMP180;28026;48.562;14.440;2022-09-09T11:45:50;93701.00;;;23.80
41593;BMP180;28026;48.562;14.440;2022-09-09T11:48:29;93693.00;;;23.80
41593;BMP180;28026;48.562;14.440;2022-09-09T11:51:10;93685.00;;;23.90
41593;BMP180;28026;48.562;14.440;2022-09-09T11:53:55;93693.00;;;23.90
41593;BMP180;28026;48.562;14.440;2022-09-09T11:56:34;93700.00;;;23.90
41593;BMP180;28026;48.562;14.440;2022-09-09T12:05:07;93687.00;;;24.00
41593;BMP180;28026;48.562;14.440;2022-09-09T12:07:52;93693.00;;;24.20
41593;BMP180;28026;48.562;14.440;2022-09-09T12:10:55;93700.00;;;24.30
41593;BMP180;28026;48.562;14.440;2022-09-09T12:13:28;93704.00;;;24.40
41593;BMP180;28026;48.562;14.440;2022-09-09T12:16:01;93699.00;;;24.50
41593;BMP180;28026;48.562;14.440;2022-09-09T12:18:37;93703.00;;;24.50
41593;BMP180;28026;48.562;14.440;2022-09-09T12:21:35;93704.00;;;24.60
41593;BMP180;28026;48.562;14.440;2022-09-09T12:24:26;93708.00;;;24.60
41593;BMP180;28026;48.562;14.440;2022-09-09T12:27:17;93708.00;;;24.60
41593;BMP180;28026;48.562;14.440;2022-09-09T12:30:10;93712.00;;;24.60
41593;BMP180;28026;48.562;14.440;2022-09-09T12:32:45;93717.00;;;24.50
41593;BMP180;28026;48.562;14.440;2022-09-09T12:35:22;93706.00;;;24.60
41593;BMP180;28026;48.562;14.440;2022-09-09T12:38:01;93705.00;;;24.60
41593;BMP180;28026;48.562;14.440;2022-09-09T12:40:34;93699.00;;;24.60
41593;BMP180;28026;48.562;14.440;2022-09-09T12:43:19;93706.00;;;24.70
41593;BMP180;28026;48.562;14.440;2022-09-09T12:45:58;93703.00;;;24.70
41593;BMP180;28026;48.562;14.440;2022-09-09T12:48:34;93696.00;;;24.70
41593;BMP180;28026;48.562;14.440;2022-09-09T12:51:19;93705.00;;;24.70
41593;BMP180;28026;48.562;14.440;2022-09-09T12:53:59;93701.00;;;24.70
41593;BMP180;28026;48.562;14.440;2022-09-09T12:56:32;93700.00;;;24.80
41593;BMP180;28026;48.562;14.440;2022-09-09T12:59:03;93700.00;;;24.80
41593;BMP180;28026;48.562;14.440;2022-09-09T13:01:35;93697.00;;;24.80
41593;BMP180;28026;48.562;14.440;2022-09-09T13:04:19;93700.00;;;24.80
41593;BMP180;28026;48.562;14.440;2022-09-09T13:06:52;93696.00;;;24.80
41593;BMP180;28026;48.562;14.440;2022-09-09T13:09:23;93692.00;;;24.90
41593;BMP180;28026;48.562;14.440;2022-09-09T13:11:55;93680.00;;;24.90
41593;BMP180;28026;48.562;14.440;2022-09-09T13:14:31;93677.00;;;25.00
41593;BMP180;28026;48.562;14.440;2022-09-09T13:17:19;93684.00;;;25.00
41593;BMP180;28026;48.562;14.440;2022-09-09T13:19:52;93689.00;;;25.10
41593;BMP180;28026;48.562;14.440;2022-09-09T13:22:30;93693.00;;;25.10
41593;BMP180;28026;48.562;14.440;2022-09-09T13:27:53;93687.00;;;25.20
41593;BMP180;28026;48.562;14.440;2022-09-09T13:30:30;93701.00;;;25.00
41593;BMP180;28026;48.562;14.440;2022-09-09T13:38:40;93687.00;;;24.30
41593;BMP180;28026;48.562;14.440;2022-09-09T13:41:35;93693.00;;;24.10
41593;BMP180;28026;48.562;14.440;2022-09-09T13:44:38;93688.00;;;24.00
41593;BMP180;28026;48.562;14.440;2022-09-09T13:49:49;93675.00;;;23.90
41593;BMP180;28026;48.562;14.440;2022-09-09T13:52:20;93673.00;;;23.80
41593;BMP180;28026;48.562;14.440;2022-09-09T13:54:52;93671.00;;;23.70
41593;BMP180;28026;48.562;14.440;2022-09-09T13:57:24;93660.00;;;23.80
41593;BMP180;28026;48.562;14.440;2022-09-09T13:59:55;93652.00;;;23.90
41593;BMP180;28026;48.562;14.440;2022-09-09T14:02:26;93651.00;;;24.00
41593;BMP180;28026;48.562;14.440;2022-09-09T14:04:57;93655.00;;;24.10
41593;BMP180;28026;48.562;14.440;2022-09-09T14:07:28;93667.00;;;24.10
41593;BMP180;28026;48.562;14.440;2022-09-09T14:09:59;93657.00;;;24.00
41593;BMP180;28026;48.562;14.440;2022-09-09T14:12:30;93659.00;;;24.00
41593;BMP180;28026;48.562;14.440;2022-09-09T14:15:02;93671.00;;;24.10
41593;BMP180;28026;48.562;14.440;2022-09-09T14:17:37;93659.00;;;24.10
41593;BMP180;28026;48.562;14.440;2022-09-09T14:20:10;93672.00;;;24.10
41593;BMP180;28026;48.562;14.440;2022-09-09T14:22:42;93668.00;;;24.10
41593;BMP180;28026;48.562;14.440;2022-09-09T14:25:14;93665.00;;;23.90
41593;BMP180;28026;48.562;14.440;2022-09-09T14:27:45;93671.00;;;23.80
41593;BMP180;28026;48.562;14.440;2022-09-09T14:30:16;93678.00;;;23.80
41593;BMP180;28026;48.562;14.440;2022-09-09T14:32:47;93676.00;;;23.70
41593;BMP180;28026;48.562;14.440;2022-09-09T14:35:18;93674.00;;;23.70
41593;BMP180;28026;48.562;14.440;2022-09-09T14:37:49;93676.00;;;23.60
41593;BMP180;28026;48.562;14.440;2022-09-09T14:40:20;93678.00;;;23.60
41593;BMP180;28026;48.562;14.440;2022-09-09T14:42:52;93672.00;;;23.60
41593;BMP180;28026;48.562;14.440;2022-09-09T14:45:23;93668.00;;;23.60
41593;BMP180;28026;48.562;14.440;2022-09-09T14:47:58;93670.00;;;23.60
41593;BMP180;28026;48.562;14.440;2022-09-09T14:50:29;93669.00;;;23.60
41593;BMP180;28026;48.562;14.440;2022-09-09T14:53:00;93675.00;;;23.50
41593;BMP180;28026;48.562;14.440;2022-09-09T14:55:31;93659.00;;;23.40
41593;BMP180;28026;48.562;14.440;2022-09-09T14:58:02;93670.00;;;23.50
41593;BMP180;28026;48.562;14.440;2022-09-09T15:00:33;93669.00;;;23.50
41593;BMP180;28026;48.562;14.440;2022-09-09T15:03:04;93665.00;;;23.60
41593;BMP180;28026;48.562;14.440;2022-09-09T15:05:36;93657.00;;;23.60
41593;BMP180;28026;48.562;14.440;2022-09-09T15:08:07;93663.00;;;23.50
41593;BMP180;28026;48.562;14.440;2022-09-09T15:10:37;93655.00;;;23.50
41593;BMP180;28026;48.562;14.440;2022-09-09T15:13:09;93655.00;;;23.50
41593;BMP180;28026;48.562;14.440;2022-09-09T15:15:40;93648.00;;;23.50
41593;BMP180;28026;48.562;14.440;2022-09-09T15:18:11;93646.00;;;23.50
41593;BMP180;28026;48.562;14.440;2022-09-09T15:20:45;93639.00;;;23.60
41593;BMP180;28026;48.562;14.440;2022-09-09T15:23:16;93631.00;;;23.60
41593;BMP180;28026;48.562;14.440;2022-09-09T15:25:54;93622.00;;;23.70
41593;BMP180;28026;48.562;14.440;2022-09-09T15:28:27;93615.00;;;23.70
41593;BMP180;28026;48.562;14.440;2022-09-09T15:30:58;93621.00;;;23.70
41593;BMP180;28026;48.562;14.440;2022-09-09T15:33:30;93633.00;;;23.80
41593;BMP180;28026;48.562;14.440;2022-09-09T15:36:01;93637.00;;;23.70
41593;BMP180;28026;48.562;14.440;2022-09-09T15:38:32;93622.00;;;23.70
41593;BMP180;28026;48.562;14.440;2022-09-09T15:41:02;93627.00;;;23.60
41593;BMP180;28026;48.562;14.440;2022-09-09T15:43:33;93626.00;;;23.60
41593;BMP180;28026;48.562;14.440;2022-09-09T15:46:38;93648.00;;;23.50
41593;BMP180;28026;48.562;14.440;2022-09-09T15:49:18;93636.00;;;23.40
41593;BMP180;28026;48.562;14.440;2022-09-09T15:51:57;93642.00;;;23.30
41593;BMP180;28026;48.562;14.440;2022-09-09T15:54:34;93644.00;;;23.30
41593;BMP180;28026;48.562;14.440;2022-09-09T15:57:11;93657.00;;;23.30
41593;BMP180;28026;48.562;14.440;2022-09-09T15:59:43;93656.00;;;23.30
41593;BMP180;28026;48.562;14.440;2022-09-09T16:02:15;93643.00;;;23.30
41593;BMP180;28026;48.562;14.440;2022-09-09T16:04:46;93638.00;;;23.30
41593;BMP180;28026;48.562;14.440;2022-09-09T16:07:17;93634.00;;;23.20
41593;BMP180;28026;48.562;14.440;2022-09-09T16:09:48;93624.00;;;23.20
41593;BMP180;28026;48.562;14.440;2022-09-09T16:12:21;93623.00;;;23.30
41593;BMP180;28026;48.562;14.440;2022-09-09T16:14:52;93628.00;;;23.30
41593;BMP180;28026;48.562;14.440;2022-09-09T16:17:23;93635.00;;;23.20
41593;BMP180;28026;48.562;14.440;2022-09-09T16:19:54;93634.00;;;23.20
41593;BMP180;28026;48.562;14.440;2022-09-09T16:22:24;93654.00;;;23.30
41593;BMP180;28026;48.562;14.440;2022-09-09T16:24:55;93660.00;;;23.20
41593;BMP180;28026;48.562;14.440;2022-09-09T16:27:26;93672.00;;;23.20
41593;BMP180;28026;48.562;14.440;2022-09-09T16:29:57;93672.00;;;23.10
41593;BMP180;28026;48.562;14.440;2022-09-09T16:32:28;93680.00;;;22.80
41593;BMP180;28026;48.562;14.440;2022-09-09T16:34:59;93676.00;;;22.60
41593;BMP180;28026;48.562;14.440;2022-09-09T16:37:30;93674.00;;;22.50